Ralph E Plagge — WDB8741 — position and weather

sailwx.info

Track history (hours):
 
Tides and Currents Weather Stations Pressure Air Temp Water Temp Dewpoint Dewpoint Depression Visibility Wind Speed Wind Dir Waves Ship Positions

Ralph E Plagge

Owner: Ingram Barge Company LLC, Nashville, TN. More information available from US FCC via Universal Licensing System and Coast Guard Vessel Documentation Center.

Last reported at 2017-Sep-28 01:21 UTC. Time now 2017-Dec-11 11:29 UTC.
Position N 38°59' W 090°34'.
Warning: this ship's position is months out of date.

Length 46 m; draft 0.3 m.

Type: Ship (hazmat cat B). MMSI: 366963470.

Date/timePositionNaut miles runAvg speedWind from/ knotsBaromVisibWave heightAir tempDewpointWater temp
2017-Sep-28 01:21N 38°59' W 090°34'1 4.0
2017-Sep-28 01:00N 38°58' W 090°32'2 3.3
2017-Sep-28 00:30N 38°58' W 090°30'2 4.0
2017-Sep-28 00:00N 38°58' W 090°28'2 4.3
2017-Sep-27 23:30N 38°58' W 090°25'0 0.4
2017-Sep-27 23:00N 38°58' W 090°25'0 0.4
2017-Sep-27 22:30N 38°58' W 090°25'1 2.2
2017-Sep-27 22:00N 38°58' W 090°23'2 4.2
2017-Sep-27 21:30N 38°57' W 090°21'2 4.2
2017-Sep-27 21:00N 38°55' W 090°19'3 4.7
2017-Sep-27 20:28N 38°55' W 090°15'2 4.7
2017-Sep-27 19:57N 38°54' W 090°13'1 0.0
2017-Sep-26 09:54N 38°54' W 090°12'2 3.5
2017-Sep-26 09:25N 38°55' W 090°13'0 0.1
2017-Sep-26 09:01N 38°55' W 090°13'0 0.0
2017-Sep-26 08:29N 38°55' W 090°13'0 0.0
2017-Sep-26 08:00N 38°55' W 090°13'0 0.0
2017-Sep-26 07:30N 38°55' W 090°13'0 0.0
2017-Sep-26 07:01N 38°55' W 090°13'1 1.3
2017-Sep-26 06:29N 38°55' W 090°14'2 5.0
2017-Sep-26 06:00N 38°55' W 090°17'3 5.5
2017-Sep-26 05:31N 38°56' W 090°21'3 5.8
2017-Sep-26 05:00N 38°58' W 090°24'3 5.8
2017-Sep-26 04:31N 38°58' W 090°28'2 4.7
2017-Sep-26 04:01N 38°57' W 090°30'2 3.7
2017-Sep-26 03:31N 38°58' W 090°33'  
2017-Sep-18 08:42N 40°26' W 089°57'1 0.7
2017-Sep-18 07:11N 40°25' W 089°58'  
Track history (hours):
 
Tides and Currents Weather Stations Pressure Air Temp Water Temp Dewpoint Dewpoint Depression Visibility Wind Speed Wind Dir Waves Ship Positions

Ralph E Plagge

Owner: Ingram Barge Company LLC, Nashville, TN. More information available from US FCC via Universal Licensing System and Coast Guard Vessel Documentation Center.

Last reported at 2017-Sep-28 01:21 UTC. Time now 2017-Dec-11 11:29 UTC.
Position N 38°59' W 090°34'.
Warning: this ship's position is months out of date.

Length 46 m; draft 0.3 m.

Type: Ship (hazmat cat B). MMSI: 366963470.

Date/timePositionNaut miles runAvg speedWind from/ knotsBaromVisibWave heightAir tempDewpointWater temp
2017-Sep-28 01:21N 38°59' W 090°34'1 4.0
2017-Sep-28 01:00N 38°58' W 090°32'2 3.3
2017-Sep-28 00:30N 38°58' W 090°30'2 4.0
2017-Sep-28 00:00N 38°58' W 090°28'2 4.3
2017-Sep-27 23:30N 38°58' W 090°25'0 0.4
2017-Sep-27 23:00N 38°58' W 090°25'0 0.4
2017-Sep-27 22:30N 38°58' W 090°25'1 2.2
2017-Sep-27 22:00N 38°58' W 090°23'2 4.2
2017-Sep-27 21:30N 38°57' W 090°21'2 4.2
2017-Sep-27 21:00N 38°55' W 090°19'3 4.7
2017-Sep-27 20:28N 38°55' W 090°15'2 4.7
2017-Sep-27 19:57N 38°54' W 090°13'1 0.0
2017-Sep-26 09:54N 38°54' W 090°12'2 3.5
2017-Sep-26 09:25N 38°55' W 090°13'0 0.1
2017-Sep-26 09:01N 38°55' W 090°13'0 0.0
2017-Sep-26 08:29N 38°55' W 090°13'0 0.0
2017-Sep-26 08:00N 38°55' W 090°13'0 0.0
2017-Sep-26 07:30N 38°55' W 090°13'0 0.0
2017-Sep-26 07:01N 38°55' W 090°13'1 1.3
2017-Sep-26 06:29N 38°55' W 090°14'2 5.0
2017-Sep-26 06:00N 38°55' W 090°17'3 5.5
2017-Sep-26 05:31N 38°56' W 090°21'3 5.8
2017-Sep-26 05:00N 38°58' W 090°24'3 5.8
2017-Sep-26 04:31N 38°58' W 090°28'2 4.7
2017-Sep-26 04:01N 38°57' W 090°30'2 3.7
2017-Sep-26 03:31N 38°58' W 090°33'  
2017-Sep-18 08:42N 40°26' W 089°57'1 0.7
2017-Sep-18 07:11N 40°25' W 089°58'  

Dump ship's entire track history